Time;durP1;ratioP1;P1;durP2;ratioP2;P2;SDS_P1;SDS_P2;PMS_P1;PMS_P2;Temp;Humidity;BMP_temperature;BMP_pressure;BME280_temperature;BME280_humidity;BME280_pressure;Samples;Min_cycle;Max_cycle;Signal;HPM_P1;HPM_P2
2022/04/11 00:02:26;;;;;;;4.50;3.70;;;6.50;99.90;;;;;;4995523;28;20547;-68
2022/04/11 00:04:52;;;;;;;4.27;2.87;;;6.60;99.90;;;;;;5015479;28;20236;-69
2022/04/11 00:07:17;;;;;;;4.37;3.37;;;6.50;99.90;;;;;;5010945;28;20452;-69
2022/04/11 00:09:43;;;;;;;3.63;3.20;;;6.50;99.90;;;;;;5023063;28;20217;-69
2022/04/11 00:12:10;;;;;;;3.80;3.47;;;6.50;99.90;;;;;;5031572;28;20634;-69
2022/04/11 00:14:36;;;;;;;4.47;3.53;;;6.50;99.90;;;;;;5018935;28;20248;-69
2022/04/11 00:17:02;;;;;;;3.80;3.30;;;6.40;99.90;;;;;;5013722;28;20566;-70
2022/04/11 00:19:28;;;;;;;3.67;3.10;;;6.30;99.90;;;;;;5012330;28;20456;-70
2022/04/11 00:21:54;;;;;;;8.07;4.00;;;6.10;99.90;;;;;;5012125;28;20464;-69
2022/04/11 00:24:20;;;;;;;7.17;3.73;;;6.10;99.90;;;;;;5010360;28;20483;-70
2022/04/11 00:26:46;;;;;;;5.60;3.00;;;6.10;99.90;;;;;;4997726;28;20221;-69
2022/04/11 00:29:12;;;;;;;5.00;4.13;;;6.20;99.90;;;;;;5011071;28;20461;-69
2022/04/11 00:31:38;;;;;;;3.40;2.93;;;6.20;99.90;;;;;;5016131;28;20213;-66
2022/04/11 00:34:04;;;;;;;3.70;3.40;;;6.20;99.90;;;;;;5012246;28;20740;-67
2022/04/11 00:36:30;;;;;;;4.37;3.53;;;6.20;99.90;;;;;;5022097;28;20451;-69
2022/04/11 00:38:55;;;;;;;4.50;3.57;;;6.30;99.90;;;;;;5024983;28;20232;-68
2022/04/11 00:41:21;;;;;;;5.20;3.40;;;6.20;99.90;;;;;;5022039;28;20263;-67
2022/04/11 00:43:47;;;;;;;3.73;3.20;;;6.20;99.90;;;;;;5011294;28;20456;-69
2022/04/11 00:46:13;;;;;;;4.40;3.50;;;6.20;99.90;;;;;;5016574;28;20213;-69
2022/04/11 00:48:40;;;;;;;5.50;3.73;;;6.20;99.90;;;;;;5010872;28;20298;-68
2022/04/11 00:51:19;;;;;;;5.27;3.80;;;6.20;99.90;;;;;;5011007;28;20504;-68
2022/04/11 00:53:47;;;;;;;3.40;3.10;;;6.20;99.90;;;;;;5016852;28;20458;-70
2022/04/11 00:56:16;;;;;;;6.43;3.73;;;6.20;99.90;;;;;;5020998;28;20822;-69
2022/04/11 00:58:42;;;;;;;6.00;3.30;;;6.10;99.90;;;;;;5022976;28;20452;-68
2022/04/11 01:01:08;;;;;;;3.53;3.20;;;6.10;99.90;;;;;;5021109;28;20464;-70
2022/04/11 01:03:34;;;;;;;4.40;3.30;;;6.10;99.90;;;;;;5010492;28;20689;-69
2022/04/11 01:06:01;;;;;;;3.40;3.07;;;6.10;99.90;;;;;;5014067;28;20524;-68
2022/04/11 01:08:28;;;;;;;3.70;3.40;;;6.10;99.90;;;;;;5010141;28;20452;-68
2022/04/11 01:10:54;;;;;;;4.20;3.20;;;6.10;99.90;;;;;;5011152;28;20466;-68
2022/04/11 01:13:20;;;;;;;3.57;3.27;;;6.00;99.90;;;;;;5007267;28;20969;-69
2022/04/11 01:16:04;;;;;;;4.03;3.37;;;6.00;99.90;;;;;;5015553;28;21038;-70
2022/04/11 01:18:37;;;;;;;3.67;3.13;;;6.00;99.90;;;;;;5025485;28;20820;-70
2022/04/11 01:21:05;;;;;;;2.87;2.67;;;6.00;99.90;;;;;;5020927;28;20471;-68
2022/04/11 01:23:31;;;;;;;3.83;3.33;;;6.00;99.90;;;;;;5010571;28;20510;-72
2022/04/11 01:25:57;;;;;;;4.17;2.93;;;6.00;99.90;;;;;;4991154;28;20885;-70
2022/04/11 01:28:23;;;;;;;5.40;3.40;;;6.00;99.90;;;;;;5014250;28;20268;-69
2022/04/11 01:30:54;;;;;;;4.80;3.50;;;6.00;99.90;;;;;;5010753;28;21017;-66
2022/04/11 01:33:27;;;;;;;2.73;2.53;;;6.00;99.90;;;;;;4994189;28;20889;-68
2022/04/11 01:35:54;;;;;;;5.00;3.00;;;5.90;99.90;;;;;;5001329;28;20463;-68
2022/04/11 01:38:20;;;;;;;3.87;3.10;;;5.90;99.90;;;;;;5012510;28;20469;-68
2022/04/11 01:40:54;;;;;;;5.30;3.40;;;5.90;99.90;;;;;;5010556;28;20506;-71
2022/04/11 01:43:20;;;;;;;6.93;4.00;;;5.90;99.90;;;;;;4993924;28;20283;-68
2022/04/11 01:45:47;;;;;;;5.23;3.50;;;5.90;99.90;;;;;;5009843;28;20463;-68
2022/04/11 01:48:15;;;;;;;4.10;3.53;;;5.90;99.90;;;;;;5001497;28;20460;-68
2022/04/11 01:50:41;;;;;;;5.63;3.40;;;5.90;99.90;;;;;;5010418;28;20463;-68
2022/04/11 01:53:09;;;;;;;7.20;4.20;;;5.90;99.90;;;;;;5010369;28;20543;-68
2022/04/11 01:55:35;;;;;;;4.03;3.43;;;5.90;99.90;;;;;;5009257;28;20460;-68
2022/04/11 01:58:05;;;;;;;4.43;3.50;;;5.80;99.90;;;;;;5011154;28;20843;-68
2022/04/11 02:00:32;;;;;;;4.07;3.20;;;5.80;99.90;;;;;;5006354;28;20448;-67
2022/04/11 02:03:02;;;;;;;3.70;3.00;;;5.80;99.90;;;;;;5009682;28;20445;-69
2022/04/11 02:05:29;;;;;;;4.13;3.70;;;5.80;99.90;;;;;;5009601;28;20451;-68
2022/04/11 02:07:56;;;;;;;6.07;3.43;;;5.90;99.90;;;;;;5009259;28;21045;-68
2022/04/11 02:10:26;;;;;;;3.70;3.30;;;5.80;99.90;;;;;;5009494;28;20468;-67
2022/04/11 02:12:53;;;;;;;6.13;3.90;;;5.80;99.90;;;;;;5014834;28;20464;-70
2022/04/11 02:15:18;;;;;;;4.47;3.93;;;5.80;99.90;;;;;;5028013;28;20805;-67
2022/04/11 02:17:48;;;;;;;3.90;3.50;;;5.80;99.90;;;;;;5011369;28;20522;-70
2022/04/11 02:20:15;;;;;;;4.47;3.67;;;5.80;99.90;;;;;;5010471;28;20243;-70
2022/04/11 02:22:48;;;;;;;7.37;4.90;;;5.80;99.90;;;;;;5009836;28;20582;-67
2022/04/11 02:25:14;;;;;;;5.30;3.80;;;5.80;99.90;;;;;;5028827;28;20827;-68
2022/04/11 02:27:41;;;;;;;4.30;3.47;;;5.80;99.90;;;;;;5026395;28;20880;-70
2022/04/11 02:30:09;;;;;;;4.33;3.40;;;5.80;99.90;;;;;;5009014;28;20847;-66
2022/04/11 02:32:34;;;;;;;4.70;3.80;;;5.70;99.90;;;;;;5008768;28;20456;-70
2022/04/11 02:35:00;;;;;;;5.63;4.43;;;5.70;99.90;;;;;;4993109;28;20460;-69
2022/04/11 02:37:26;;;;;;;5.13;4.63;;;5.70;99.90;;;;;;5017630;28;20232;-69
2022/04/11 02:39:52;;;;;;;7.77;4.27;;;5.70;99.90;;;;;;5016890;28;20546;-68
2022/04/11 02:42:26;;;;;;;4.87;4.10;;;5.70;99.90;;;;;;5010964;28;20223;-67
2022/04/11 02:44:58;;;;;;;4.27;3.47;;;5.70;99.90;;;;;;4999700;28;20530;-69
2022/04/11 02:47:24;;;;;;;5.97;3.90;;;5.70;99.90;;;;;;5004921;28;20524;-71
2022/04/11 02:49:49;;;;;;;8.13;4.13;;;5.70;99.90;;;;;;5015143;28;20295;-69
2022/04/11 02:52:28;;;;;;;4.70;3.50;;;5.70;99.90;;;;;;5020015;28;20225;-69
2022/04/11 02:54:55;;;;;;;5.57;4.90;;;5.70;99.90;;;;;;5018554;28;20969;-68
2022/04/11 02:57:22;;;;;;;6.33;4.57;;;5.70;99.90;;;;;;5009649;28;20972;-69
2022/04/11 02:59:51;;;;;;;4.40;4.00;;;5.60;99.90;;;;;;5011564;28;20574;-69
2022/04/11 03:02:17;;;;;;;4.63;3.53;;;5.60;99.90;;;;;;5017498;28;20456;-68
2022/04/11 03:04:44;;;;;;;4.97;4.37;;;5.60;99.90;;;;;;5017141;28;20505;-68
2022/04/11 03:07:18;;;;;;;7.53;4.50;;;5.60;99.90;;;;;;5008900;28;20460;-67
2022/04/11 03:09:44;;;;;;;4.40;4.00;;;5.60;99.90;;;;;;5009451;28;20454;-68
2022/04/11 03:12:11;;;;;;;9.37;4.90;;;5.60;99.90;;;;;;5016728;28;20452;-69
2022/04/11 03:14:37;;;;;;;4.53;4.13;;;5.60;99.90;;;;;;4992370;28;20460;-69
2022/04/11 03:17:04;;;;;;;4.60;3.80;;;5.60;99.90;;;;;;5009676;28;20238;-69
2022/04/11 03:19:33;;;;;;;7.07;4.07;;;5.60;99.90;;;;;;5006013;28;20448;-68
2022/04/11 03:21:59;;;;;;;7.70;4.63;;;5.60;99.90;;;;;;4997256;28;20472;-69
2022/04/11 03:24:25;;;;;;;4.53;4.13;;;5.60;99.90;;;;;;5027009;28;20478;-68
2022/04/11 03:26:52;;;;;;;5.37;4.87;;;5.60;99.90;;;;;;5023936;28;20456;-68
2022/04/11 03:29:24;;;;;;;6.03;4.53;;;5.60;99.90;;;;;;5007059;28;20959;-69
2022/04/11 03:31:50;;;;;;;4.50;4.10;;;5.50;99.90;;;;;;5008497;28;20986;-69
2022/04/11 03:34:18;;;;;;;5.63;4.47;;;5.50;99.90;;;;;;5012853;28;20996;-68
2022/04/11 03:36:44;;;;;;;6.00;4.63;;;5.50;99.90;;;;;;5008608;28;20468;-68
2022/04/11 03:39:10;;;;;;;10.90;5.90;;;5.50;99.90;;;;;;4992601;28;20308;-68
2022/04/11 03:41:39;;;;;;;4.87;4.23;;;5.50;99.90;;;;;;5004111;28;20463;-68
2022/04/11 03:44:13;;;;;;;8.53;5.30;;;5.50;99.90;;;;;;5010663;28;20467;-69
2022/04/11 03:46:41;;;;;;;5.00;4.50;;;5.50;99.90;;;;;;5008578;28;20456;-69
2022/04/11 03:49:10;;;;;;;6.30;5.03;;;5.50;99.90;;;;;;4992773;28;20457;-69
2022/04/11 03:51:36;;;;;;;7.40;5.40;;;5.50;99.90;;;;;;5005699;28;20432;-68
2022/04/11 03:54:03;;;;;;;8.13;5.20;;;5.50;99.90;;;;;;4992277;28;20853;-68
2022/04/11 03:56:29;;;;;;;6.90;5.80;;;5.50;99.90;;;;;;5023779;28;21006;-69
2022/04/11 03:58:56;;;;;;;6.50;5.33;;;5.50;99.90;;;;;;5021826;28;20459;-68
2022/04/11 04:01:23;;;;;;;8.90;5.20;;;5.50;99.90;;;;;;4995079;28;21027;-68
2022/04/11 04:03:49;;;;;;;10.10;6.30;;;5.40;99.90;;;;;;5007664;28;20539;-68
2022/04/11 04:06:15;;;;;;;7.67;5.53;;;5.40;99.90;;;;;;4994678;28;20214;-68
2022/04/11 04:08:43;;;;;;;7.00;6.30;;;5.40;99.90;;;;;;4994871;28;20234;-69
2022/04/11 04:11:16;;;;;;;6.17;5.10;;;5.40;99.90;;;;;;5002038;28;20468;-69
2022/04/11 04:13:48;;;;;;;7.87;5.80;;;5.30;99.90;;;;;;4996089;28;20535;-69
2022/04/11 04:16:14;;;;;;;7.60;6.47;;;5.30;99.90;;;;;;4994934;28;20525;-69
2022/04/11 04:18:45;;;;;;;8.77;5.67;;;5.30;99.90;;;;;;5007322;28;20459;-69
2022/04/11 04:21:11;;;;;;;8.60;6.57;;;5.30;99.90;;;;;;5027562;28;20457;-68
2022/04/11 04:23:38;;;;;;;16.83;6.40;;;5.30;99.90;;;;;;5017064;28;20308;-68
2022/04/11 04:26:03;;;;;;;7.80;6.03;;;5.30;99.90;;;;;;5015140;28;21023;-68
2022/04/11 04:28:29;;;;;;;8.03;6.47;;;5.30;99.90;;;;;;5021617;28;20263;-69
2022/04/11 04:30:55;;;;;;;11.20;6.70;;;5.30;99.90;;;;;;5011689;28;20228;-69
2022/04/11 04:33:21;;;;;;;9.97;7.40;;;5.30;99.90;;;;;;5018332;28;20304;-68
2022/04/11 04:35:49;;;;;;;8.73;5.97;;;5.20;99.90;;;;;;5006023;28;20312;-68
2022/04/11 04:38:15;;;;;;;8.67;6.43;;;5.20;99.90;;;;;;5002906;28;20536;-70
2022/04/11 04:40:47;;;;;;;10.00;6.90;;;5.20;99.90;;;;;;5011456;28;20766;-69
2022/04/11 04:43:16;;;;;;;9.10;6.60;;;5.20;99.90;;;;;;5011307;28;20503;-67
2022/04/11 04:45:42;;;;;;;9.10;7.20;;;5.20;99.90;;;;;;5027055;28;20459;-68
2022/04/11 04:48:15;;;;;;;7.30;5.93;;;5.20;99.90;;;;;;4999966;28;21012;-68
2022/04/11 04:50:41;;;;;;;9.20;6.83;;;5.20;99.90;;;;;;5011348;28;21045;-69
2022/04/11 04:53:11;;;;;;;8.70;6.20;;;5.20;99.90;;;;;;5011333;28;20535;-68
2022/04/11 04:55:36;;;;;;;9.50;6.60;;;5.20;99.90;;;;;;5013459;28;20540;-69
2022/04/11 04:58:04;;;;;;;6.43;5.73;;;5.20;99.90;;;;;;4994231;28;20225;-69
2022/04/11 05:00:30;;;;;;;7.30;6.53;;;5.20;99.90;;;;;;5015614;28;20459;-68
2022/04/11 05:02:57;;;;;;;8.60;6.80;;;5.10;99.90;;;;;;5016594;28;20452;-69
2022/04/11 05:05:24;;;;;;;8.40;7.07;;;5.10;99.90;;;;;;4997814;28;20539;-68
2022/04/11 05:07:53;;;;;;;7.20;6.00;;;5.00;99.90;;;;;;5010614;28;20452;-69
2022/04/11 05:10:23;;;;;;;9.03;6.10;;;5.00;99.90;;;;;;4994050;28;20453;-68
2022/04/11 05:12:50;;;;;;;9.73;6.80;;;5.00;99.90;;;;;;5011829;28;20612;-68
2022/04/11 05:15:17;;;;;;;10.87;6.67;;;5.00;99.90;;;;;;5023183;28;20445;-69
2022/04/11 05:17:47;;;;;;;10.83;6.50;;;5.00;99.90;;;;;;5010471;28;20490;-69
2022/04/11 05:20:14;;;;;;;8.30;6.57;;;5.00;99.90;;;;;;5009249;28;20448;-68
2022/04/11 05:22:41;;;;;;;9.73;6.60;;;5.00;99.90;;;;;;5027138;28;20566;-66
2022/04/11 05:25:07;;;;;;;7.73;5.83;;;5.00;99.90;;;;;;5029288;28;20601;-68
2022/04/11 05:27:33;;;;;;;10.03;6.80;;;5.00;99.90;;;;;;5009913;28;20217;-68
2022/04/11 05:29:59;;;;;;;8.33;6.37;;;5.00;99.90;;;;;;4980582;28;20461;-68
2022/04/11 05:32:25;;;;;;;15.23;6.80;;;5.00;99.90;;;;;;4988040;28;20461;-68
2022/04/11 05:34:51;;;;;;;8.60;6.10;;;5.00;99.90;;;;;;5005981;28;20444;-68
2022/04/11 05:37:17;;;;;;;10.00;6.33;;;4.90;99.90;;;;;;5011227;28;20228;-72
2022/04/11 05:39:44;;;;;;;8.70;7.13;;;4.90;99.90;;;;;;5010044;28;20463;-69
2022/04/11 05:42:10;;;;;;;7.70;6.00;;;4.90;99.90;;;;;;5009826;28;20448;-68
2022/04/11 05:44:38;;;;;;;7.37;6.10;;;4.90;99.90;;;;;;4992071;28;20704;-69
2022/04/11 05:47:05;;;;;;;7.90;6.10;;;4.90;99.90;;;;;;4995022;28;20474;-72
2022/04/11 05:49:39;;;;;;;8.00;5.97;;;4.90;99.90;;;;;;5002514;28;20467;-69
2022/04/11 05:52:06;;;;;;;8.90;6.57;;;5.00;99.90;;;;;;5016825;28;20479;-68
2022/04/11 05:54:35;;;;;;;7.60;5.33;;;5.00;99.90;;;;;;5009615;28;20852;-69
2022/04/11 05:57:01;;;;;;;7.00;5.30;;;5.00;99.90;;;;;;5009430;28;20517;-69
2022/04/11 05:59:27;;;;;;;6.17;4.97;;;5.00;99.90;;;;;;5016934;28;20853;-69
2022/04/11 06:01:53;;;;;;;7.33;5.93;;;5.00;99.90;;;;;;4992619;28;20718;-71
2022/04/11 06:04:19;;;;;;;7.90;5.50;;;5.00;99.90;;;;;;4993680;28;20226;-66
2022/04/11 06:06:44;;;;;;;7.60;6.23;;;5.00;99.90;;;;;;5012380;28;20252;-68
2022/04/11 06:09:10;;;;;;;10.10;6.10;;;5.00;99.90;;;;;;5010546;28;20217;-66
2022/04/11 06:11:38;;;;;;;12.03;5.60;;;5.00;99.90;;;;;;4993343;28;20751;-69
2022/04/11 06:14:04;;;;;;;7.47;5.80;;;5.00;99.90;;;;;;5013306;28;20448;-69
2022/04/11 06:16:30;;;;;;;6.83;5.30;;;5.00;99.90;;;;;;5008667;28;20670;-72
2022/04/11 06:18:55;;;;;;;12.33;5.80;;;5.10;99.90;;;;;;5013370;28;20240;-69
2022/04/11 06:21:22;;;;;;;7.27;5.93;;;5.10;99.90;;;;;;5025126;28;20700;-71
2022/04/11 06:23:47;;;;;;;9.87;6.30;;;5.10;99.90;;;;;;4994156;28;20463;-74
2022/04/11 06:26:14;;;;;;;8.70;6.20;;;5.10;99.90;;;;;;5008610;28;20248;-71
2022/04/11 06:28:43;;;;;;;8.67;5.70;;;5.10;99.90;;;;;;5008998;28;20486;-68
2022/04/11 06:31:11;;;;;;;8.10;6.13;;;5.10;99.90;;;;;;5002608;28;20458;-68
2022/04/11 06:33:37;;;;;;;5.60;5.10;;;5.20;99.90;;;;;;5014082;28;20455;-69
2022/04/11 06:36:04;;;;;;;8.97;6.10;;;5.20;99.90;;;;;;5023623;28;20512;-68
2022/04/11 06:38:30;;;;;;;6.47;5.60;;;5.20;99.90;;;;;;5010017;28;20453;-68
2022/04/11 06:40:56;;;;;;;7.10;5.83;;;5.20;99.90;;;;;;5000919;28;20571;-69
2022/04/11 06:43:23;;;;;;;6.60;5.90;;;5.30;99.90;;;;;;5015059;28;20539;-70
2022/04/11 06:46:00;;;;;;;9.10;7.07;;;5.30;99.90;;;;;;4998958;28;20451;-69
2022/04/11 06:48:26;;;;;;;6.87;4.97;;;5.30;99.90;;;;;;5009007;28;20607;-68
2022/04/11 06:50:53;;;;;;;7.57;6.37;;;5.40;99.90;;;;;;4996495;28;20220;-68
2022/04/11 06:53:19;;;;;;;8.90;6.30;;;5.50;99.90;;;;;;5012304;28;20225;-68
2022/04/11 06:55:47;;;;;;;6.73;5.70;;;5.50;99.90;;;;;;5010536;28;20468;-69
2022/04/11 06:58:16;;;;;;;13.10;6.50;;;5.60;99.90;;;;;;4992223;28;20551;-68
2022/04/11 07:00:45;;;;;;;8.93;6.03;;;5.60;99.90;;;;;;5005879;28;20984;-68
2022/04/11 07:03:11;;;;;;;6.13;4.90;;;5.70;99.90;;;;;;5014386;28;20457;-68
2022/04/11 07:05:38;;;;;;;7.20;5.63;;;5.80;99.90;;;;;;5015711;28;20459;-68
2022/04/11 07:08:05;;;;;;;8.00;5.47;;;5.80;99.90;;;;;;5007149;28;20468;-69
2022/04/11 07:10:31;;;;;;;8.70;6.13;;;5.90;99.90;;;;;;5007512;28;20471;-69
2022/04/11 07:12:58;;;;;;;7.70;5.57;;;5.90;99.90;;;;;;5008316;28;20444;-69
2022/04/11 07:15:24;;;;;;;7.90;6.30;;;6.00;99.90;;;;;;5007165;28;20456;-68
2022/04/11 07:17:50;;;;;;;9.53;6.03;;;6.00;99.90;;;;;;5008301;28;21161;-68
2022/04/11 07:20:15;;;;;;;10.37;5.93;;;6.10;99.90;;;;;;5008193;28;20452;-68
2022/04/11 07:22:42;;;;;;;6.17;5.57;;;6.10;99.90;;;;;;5008951;28;20221;-67
2022/04/11 07:25:08;;;;;;;5.23;4.70;;;6.20;99.90;;;;;;5008220;28;20488;-68
2022/04/11 07:27:34;;;;;;;5.37;4.87;;;6.30;99.90;;;;;;5007650;28;20452;-73
2022/04/11 07:30:00;;;;;;;5.17;4.67;;;6.40;99.90;;;;;;5008237;28;20460;-69
2022/04/11 07:32:25;;;;;;;6.27;4.60;;;6.50;99.90;;;;;;4993862;28;20214;-69
2022/04/11 07:34:51;;;;;;;6.93;4.07;;;6.60;99.90;;;;;;5013698;28;20224;-69
2022/04/11 07:37:17;;;;;;;5.40;4.60;;;6.70;99.90;;;;;;5008754;28;20249;-70
2022/04/11 07:39:43;;;;;;;12.47;6.27;;;6.80;99.90;;;;;;5019665;28;20743;-68
2022/04/11 07:42:08;;;;;;;8.83;5.47;;;6.90;99.90;;;;;;5022665;28;20614;-68
2022/04/11 07:44:34;;;;;;;7.00;5.10;;;7.00;99.90;;;;;;5011393;28;20268;-68
2022/04/11 07:47:00;;;;;;;7.60;5.50;;;7.10;99.90;;;;;;5013470;28;20225;-69
2022/04/11 07:49:25;;;;;;;6.03;5.00;;;7.20;99.90;;;;;;5013229;28;20231;-69
2022/04/11 07:51:51;;;;;;;6.80;5.00;;;7.20;99.90;;;;;;5016432;28;20213;-68
2022/04/11 07:54:16;;;;;;;5.97;5.10;;;7.30;99.90;;;;;;5015518;28;20221;-68
2022/04/11 07:56:42;;;;;;;5.83;4.97;;;7.40;99.90;;;;;;5009014;28;20245;-68
2022/04/11 07:59:08;;;;;;;6.43;4.57;;;7.50;99.90;;;;;;5017724;28;20410;-71
2022/04/11 08:01:34;;;;;;;6.23;5.27;;;7.60;99.90;;;;;;5017177;28;20456;-71
2022/04/11 08:03:59;;;;;;;5.90;4.83;;;7.70;99.90;;;;;;5018263;28;20358;-74
2022/04/11 08:06:25;;;;;;;5.47;4.97;;;7.80;99.90;;;;;;5020181;28;20290;-70
2022/04/11 08:08:51;;;;;;;5.53;4.70;;;7.80;99.90;;;;;;5016161;28;20279;-71
2022/04/11 08:11:18;;;;;;;5.73;5.07;;;7.90;99.90;;;;;;5015534;28;20226;-71
2022/04/11 08:13:44;;;;;;;6.90;4.80;;;8.00;99.90;;;;;;5020909;28;20208;-73
2022/04/11 08:16:10;;;;;;;9.40;5.07;;;8.10;99.90;;;;;;5019478;28;20452;-71
2022/04/11 08:18:36;;;;;;;7.33;4.83;;;8.10;99.90;;;;;;5020073;28;20459;-72
2022/04/11 08:21:02;;;;;;;5.70;5.20;;;8.20;99.90;;;;;;5019667;28;20309;-71
2022/04/11 08:23:28;;;;;;;7.60;4.97;;;8.30;99.90;;;;;;5015111;28;20748;-74
2022/04/11 08:25:54;;;;;;;6.57;5.03;;;8.40;99.90;;;;;;5021271;28;20466;-70
2022/04/11 08:28:20;;;;;;;6.13;4.87;;;8.50;99.90;;;;;;5021475;28;20216;-71
2022/04/11 08:30:46;;;;;;;4.80;4.10;;;8.60;99.90;;;;;;5014322;28;20699;-70
2022/04/11 08:33:13;;;;;;;6.87;5.07;;;8.70;99.90;;;;;;5015606;28;20468;-70
2022/04/11 08:35:39;;;;;;;4.83;4.40;;;8.80;99.90;;;;;;5014665;28;20850;-74
2022/04/11 08:38:04;;;;;;;5.33;4.73;;;8.90;99.90;;;;;;5015767;28;20467;-72
2022/04/11 08:40:31;;;;;;;4.93;3.90;;;9.00;99.90;;;;;;5014137;28;20448;-71
2022/04/11 08:42:57;;;;;;;7.50;5.27;;;9.10;99.90;;;;;;5016368;28;20252;-71
2022/04/11 08:45:23;;;;;;;5.80;4.93;;;9.20;99.90;;;;;;5012570;28;20467;-70
2022/04/11 08:47:59;;;;;;;4.43;3.87;;;9.30;99.90;;;;;;5011701;28;20448;-74
2022/04/11 08:50:26;;;;;;;4.57;3.60;;;9.60;99.90;;;;;;5015713;28;20455;-69
2022/04/11 08:52:53;;;;;;;5.37;3.33;;;9.80;99.90;;;;;;5014667;28;20451;-68
2022/04/11 08:55:21;;;;;;;3.67;3.17;;;9.90;99.90;;;;;;5009746;28;21030;-69
2022/04/11 08:57:47;;;;;;;4.20;3.47;;;9.90;99.90;;;;;;5021557;28;20475;-69
2022/04/11 09:00:15;;;;;;;3.00;2.77;;;10.00;99.90;;;;;;5012875;28;20828;-66
2022/04/11 09:02:43;;;;;;;4.90;3.90;;;10.00;99.90;;;;;;5011162;28;21047;-69
2022/04/11 09:05:10;;;;;;;3.87;3.50;;;10.10;99.90;;;;;;5015398;28;20547;-69
2022/04/11 09:07:57;;;;;;;6.93;4.17;;;10.30;99.90;;;;;;5007609;28;20447;-68
2022/04/11 09:10:25;;;;;;;3.90;3.50;;;10.40;99.90;;;;;;5006340;28;20448;-68
2022/04/11 09:12:53;;;;;;;4.20;3.50;;;10.50;99.90;;;;;;5010201;28;20491;-69
2022/04/11 09:15:20;;;;;;;3.50;3.07;;;10.60;99.90;;;;;;5001259;28;20542;-69
2022/04/11 09:17:47;;;;;;;5.80;3.73;;;10.70;99.90;;;;;;5011743;28;20495;-70
2022/04/11 09:20:15;;;;;;;3.90;3.50;;;10.80;99.90;;;;;;5010137;28;20491;-68
2022/04/11 09:22:42;;;;;;;4.77;3.23;;;10.70;99.90;;;;;;5011953;28;20964;-69
2022/04/11 09:25:31;;;;;;;3.93;3.40;;;10.80;99.90;;;;;;5018282;28;20543;-68
2022/04/11 09:28:08;;;;;;;4.07;2.80;;;11.10;99.90;;;;;;5006039;28;20460;-69
2022/04/11 09:30:36;;;;;;;3.87;3.30;;;11.40;99.90;;;;;;4992424;28;20456;-70
2022/04/11 09:33:07;;;;;;;6.77;3.37;;;11.50;99.90;;;;;;5013026;28;20448;-70
2022/04/11 09:35:54;;;;;;;5.83;3.77;;;11.50;99.90;;;;;;5012324;28;21118;-69
2022/04/11 09:38:22;;;;;;;3.23;2.93;;;11.60;99.90;;;;;;5011614;28;20475;-68
2022/04/11 09:40:54;;;;;;;9.77;3.17;;;11.70;99.90;;;;;;5018410;28;20458;-70
2022/04/11 09:43:27;;;;;;;3.67;3.10;;;11.70;99.90;;;;;;5026088;28;20452;-69
2022/04/11 09:45:53;;;;;;;4.37;2.80;;;11.80;99.90;;;;;;5006303;28;21016;-70
2022/04/11 09:48:45;;;;;;;3.10;2.80;;;12.10;99.90;;;;;;4999153;28;20483;-69
2022/04/11 09:51:13;;;;;;;3.30;3.00;;;12.20;99.90;;;;;;5022714;28;20475;-70
2022/04/11 09:53:39;;;;;;;3.10;2.70;;;12.10;99.90;;;;;;5011890;28;20543;-70
2022/04/11 09:56:09;;;;;;;5.07;3.33;;;12.20;99.90;;;;;;4992891;28;20555;-68
2022/04/11 09:58:38;;;;;;;2.97;2.33;;;12.10;99.90;;;;;;4990377;28;20226;-68
2022/04/11 10:01:06;;;;;;;3.63;2.73;;;12.20;99.90;;;;;;5020436;28;20486;-70
2022/04/11 10:03:32;;;;;;;2.80;2.60;;;12.30;99.90;;;;;;4993551;28;20444;-70
2022/04/11 10:05:58;;;;;;;5.00;2.73;;;12.40;99.90;;;;;;5009604;28;20543;-69
2022/04/11 10:08:25;;;;;;;2.20;2.07;;;12.40;99.90;;;;;;5010578;28;20325;-71
2022/04/11 10:10:53;;;;;;;2.60;2.40;;;12.50;99.90;;;;;;5007694;28;20449;-70
2022/04/11 10:13:19;;;;;;;2.43;2.23;;;12.80;99.90;;;;;;5009135;28;20445;-69
2022/04/11 10:15:47;;;;;;;2.93;2.63;;;13.00;99.90;;;;;;5017506;28;20473;-71
2022/04/11 10:18:15;;;;;;;5.03;2.70;;;13.10;99.90;;;;;;5009434;28;20229;-69
2022/04/11 10:20:46;;;;;;;3.03;2.53;;;13.20;99.90;;;;;;5023327;28;20441;-68
2022/04/11 10:23:31;;;;;;;7.30;3.30;;;13.40;99.90;;;;;;5014509;28;20599;-75
2022/04/11 10:25:59;;;;;;;2.40;2.20;;;13.40;99.90;;;;;;5011779;28;20468;-71
2022/04/11 10:28:27;;;;;;;5.80;3.70;;;13.50;99.90;;;;;;5010273;28;20848;-71
2022/04/11 10:31:10;;;;;;;3.03;2.73;;;13.60;99.80;;;;;;4993682;28;20461;-68
2022/04/11 10:33:48;;;;;;;2.87;2.67;;;13.80;99.50;;;;;;4991941;28;20448;-72
2022/04/11 10:36:34;;;;;;;3.87;2.90;;;13.90;99.90;;;;;;4993872;28;20508;-70
2022/04/11 10:39:15;;;;;;;3.43;3.13;;;14.00;99.30;;;;;;4990337;28;20480;-70
2022/04/11 10:41:56;;;;;;;4.07;3.67;;;14.20;99.40;;;;;;5023508;28;20458;-69
2022/04/11 10:44:46;;;;;;;4.60;3.23;;;14.30;98.20;;;;;;5007906;28;20490;-70
2022/04/11 10:47:11;;;;;;;2.90;2.70;;;14.30;98.10;;;;;;5001441;28;20448;-69
2022/04/11 10:49:58;;;;;;;3.53;3.23;;;14.30;98.20;;;;;;5013209;28;20802;-69
2022/04/11 10:52:39;;;;;;;4.93;2.73;;;14.40;98.20;;;;;;5011753;28;20213;-71
2022/04/11 10:55:06;;;;;;;5.30;3.43;;;14.60;98.20;;;;;;5008928;28;20486;-73
2022/04/11 10:57:42;;;;;;;3.40;3.10;;;14.60;97.90;;;;;;5024448;28;20859;-70
2022/04/11 11:00:15;;;;;;;3.97;3.00;;;14.60;98.20;;;;;;5014146;28;20528;-69
2022/04/11 11:03:01;;;;;;;3.47;3.20;;;14.50;97.70;;;;;;5010350;28;20452;-68
2022/04/11 11:05:48;;;;;;;2.93;2.73;;;14.40;98.00;;;;;;5007695;28;20555;-71
2022/04/11 11:08:17;;;;;;;3.43;2.90;;;14.50;98.00;;;;;;5013455;28;20455;-68
2022/04/11 11:11:20;;;;;;;2.77;2.57;;;14.60;96.00;;;;;;5024151;28;20817;-70
2022/04/11 11:13:46;;;;;;;3.13;2.83;;;14.60;97.70;;;;;;4959949;28;20486;-69
2022/04/11 11:16:14;;;;;;;4.83;2.90;;;14.70;96.30;;;;;;4994080;28;20460;-69
2022/04/11 11:18:48;;;;;;;3.57;3.23;;;14.80;96.60;;;;;;5020296;28;20809;-70
2022/04/11 11:21:15;;;;;;;5.83;3.87;;;15.00;96.60;;;;;;5008387;28;20647;-70
2022/04/11 11:23:42;;;;;;;3.83;3.43;;;15.10;95.80;;;;;;5012062;28;20448;-68
2022/04/11 11:26:15;;;;;;;3.60;3.30;;;15.10;95.20;;;;;;5009398;28;20464;-72
2022/04/11 11:28:42;;;;;;;8.93;3.20;;;15.10;94.50;;;;;;5013081;28;20463;-70
2022/04/11 11:31:08;;;;;;;4.00;3.47;;;15.20;96.40;;;;;;5017423;28;20468;-71
2022/04/11 11:33:35;;;;;;;3.47;2.97;;;15.30;95.20;;;;;;5014802;28;20498;-73
2022/04/11 11:36:02;;;;;;;3.30;3.00;;;15.30;95.00;;;;;;5011900;28;20490;-70
2022/04/11 11:38:31;;;;;;;5.13;3.20;;;15.20;95.10;;;;;;5010082;28;20468;-69
2022/04/11 11:40:58;;;;;;;5.40;3.60;;;15.30;95.80;;;;;;5017042;28;20523;-72
2022/04/11 11:43:25;;;;;;;5.97;3.80;;;15.30;94.70;;;;;;5010222;28;20984;-68
2022/04/11 11:45:51;;;;;;;3.53;3.23;;;15.30;95.40;;;;;;4991257;28;20535;-69
2022/04/11 11:48:25;;;;;;;4.20;3.73;;;15.30;95.30;;;;;;5009279;28;20480;-69
2022/04/11 11:50:55;;;;;;;7.80;3.37;;;15.20;95.30;;;;;;5012123;28;21004;-69
2022/04/11 11:53:21;;;;;;;3.13;2.83;;;15.20;95.10;;;;;;5028170;28;20874;-68
2022/04/11 11:55:55;;;;;;;3.60;3.30;;;15.30;96.60;;;;;;5029627;28;20887;-70
2022/04/11 11:58:22;;;;;;;3.87;3.23;;;15.40;94.60;;;;;;5008986;28;20542;-70
2022/04/11 12:00:48;;;;;;;4.43;3.77;;;15.40;94.50;;;;;;5014921;28;20471;-71
2022/04/11 12:06:00;;;;;;;3.30;3.00;;;15.40;94.70;;;;;;5019282;28;20459;-70
2022/04/11 12:08:30;;;;;;;3.00;2.80;;;15.50;94.70;;;;;;5020857;28;20507;-69
2022/04/11 12:10:58;;;;;;;3.20;2.80;;;15.70;96.50;;;;;;5008290;28;20719;-70
2022/04/11 12:13:28;;;;;;;4.30;3.07;;;15.80;94.70;;;;;;5010254;28;20451;-70
2022/04/11 12:16:09;;;;;;;5.97;3.20;;;15.80;93.60;;;;;;5008728;28;20464;-71
2022/04/11 12:18:54;;;;;;;3.30;3.00;;;15.90;93.70;;;;;;5010565;28;20551;-69
2022/04/11 12:21:42;;;;;;;6.57;2.73;;;16.00;94.30;;;;;;5011158;28;20547;-71
2022/04/11 12:24:09;;;;;;;2.90;2.70;;;15.90;93.80;;;;;;5012081;28;20472;-74
2022/04/11 12:26:36;;;;;;;5.67;3.20;;;15.80;93.60;;;;;;5016137;28;20462;-69
2022/04/11 12:29:10;;;;;;;3.67;2.47;;;15.80;94.40;;;;;;5012791;28;20456;-70
2022/04/11 12:31:38;;;;;;;3.83;3.00;;;15.90;93.70;;;;;;4994284;28;20460;-69
2022/04/11 12:34:12;;;;;;;3.50;3.20;;;15.80;93.30;;;;;;5014401;28;20470;-69
2022/04/11 12:36:55;;;;;;;5.60;3.93;;;15.70;93.60;;;;;;5018340;28;20961;-69
2022/04/11 12:39:22;;;;;;;4.40;3.17;;;15.70;93.20;;;;;;5012628;28;20466;-69
2022/04/11 12:41:47;;;;;;;3.00;2.57;;;15.70;92.90;;;;;;5010592;28;20527;-70
2022/04/11 12:44:14;;;;;;;2.53;2.33;;;15.80;93.50;;;;;;5013289;28;20519;-70
2022/04/11 12:47:03;;;;;;;3.17;2.87;;;15.80;94.50;;;;;;5001952;28;20287;-70
2022/04/11 12:49:52;;;;;;;10.57;3.03;;;15.80;93.10;;;;;;5013950;28;20494;-72
2022/04/11 12:52:29;;;;;;;3.40;3.10;;;15.60;93.70;;;;;;5019934;28;20447;-74
2022/04/11 12:55:05;;;;;;;2.67;2.47;;;15.30;92.70;;;;;;4992095;28;20464;-69
2022/04/11 12:57:32;;;;;;;3.37;2.10;;;15.30;92.90;;;;;;5011233;28;20464;-69
2022/04/11 13:00:12;;;;;;;2.93;2.73;;;15.40;92.80;;;;;;4995183;28;20455;-69
2022/04/11 13:02:38;;;;;;;3.00;2.67;;;15.30;92.40;;;;;;5014385;28;20521;-69
2022/04/11 13:05:08;;;;;;;2.73;2.23;;;15.40;93.10;;;;;;5010067;28;20533;-70